Time;durP1;ratioP1;P1;durP2;ratioP2;P2;SDS_P1;SDS_P2;PMS_P1;PMS_P2;Temp;Humidity;BMP_temperature;BMP_pressure;BME280_temperature;BME280_humidity;BME280_pressure;Samples;Min_cycle;Max_cycle;Signal;HPM_P1;HPM_P2
2021/06/12 00:02:21;;;;;;;4.20;3.85;;;;;;;;;;5067582;28;20025;-81
2021/06/12 00:04:47;;;;;;;4.30;3.90;;;;;;;;;;5075163;28;20028;-80
2021/06/12 00:07:13;;;;;;;4.60;4.20;;;;;;;;;;5075653;28;20108;-80
2021/06/12 00:09:39;;;;;;;4.28;3.97;;;;;;;;;;5076464;28;20021;-81
2021/06/12 00:12:06;;;;;;;4.22;3.83;;;;;;;;;;5059626;28;20494;-80
2021/06/12 00:14:32;;;;;;;3.92;3.63;;;;;;;;;;5056686;28;20125;-80
2021/06/12 00:16:58;;;;;;;4.20;3.85;;;;;;;;;;5084788;28;20096;-80
2021/06/12 00:19:25;;;;;;;4.95;4.38;;;;;;;;;;5091016;28;20024;-80
2021/06/12 00:21:51;;;;;;;4.15;3.78;;;;;;;;;;5068094;28;20060;-81
2021/06/12 00:24:17;;;;;;;5.35;4.82;;;;;;;;;;5085831;28;20017;-81
2021/06/12 00:26:43;;;;;;;7.32;5.00;;;;;;;;;;5067201;28;20040;-80
2021/06/12 00:29:09;;;;;;;4.93;4.53;;;;;;;;;;5069457;28;20115;-80
2021/06/12 00:31:35;;;;;;;4.53;4.05;;;;;;;;;;5091689;28;20036;-80
2021/06/12 00:34:01;;;;;;;5.07;4.60;;;;;;;;;;5093882;28;20028;-80
2021/06/12 00:36:27;;;;;;;5.28;4.78;;;;;;;;;;5087068;28;20033;-81
2021/06/12 00:38:53;;;;;;;5.10;4.03;;;;;;;;;;5085320;28;20025;-81
2021/06/12 00:41:19;;;;;;;3.80;3.50;;;;;;;;;;5083223;28;20036;-82
2021/06/12 00:43:46;;;;;;;4.32;3.92;;;;;;;;;;5046742;28;20025;-81
2021/06/12 00:46:12;;;;;;;4.72;4.15;;;;;;;;;;5076824;28;20134;-82
2021/06/12 00:48:38;;;;;;;4.35;3.75;;;;;;;;;;5066527;28;20086;-82
2021/06/12 00:51:05;;;;;;;5.20;3.72;;;;;;;;;;5067025;28;20128;-81
2021/06/12 00:53:39;;;;;;;4.18;3.88;;;;;;;;;;5085639;28;20085;-82
2021/06/12 00:56:06;;;;;;;4.68;4.15;;;;;;;;;;5085237;28;20047;-83
2021/06/12 00:58:33;;;;;;;4.65;4.15;;;;;;;;;;5066140;28;20024;-82
2021/06/12 01:01:00;;;;;;;4.57;4.18;;;;;;;;;;5083514;28;20016;-81
2021/06/12 01:03:27;;;;;;;4.43;3.78;;;;;;;;;;5065300;28;20024;-80
2021/06/12 01:05:53;;;;;;;4.60;4.20;;;;;;;;;;5084324;28;20035;-82
2021/06/12 01:08:19;;;;;;;4.60;4.20;;;;;;;;;;5083372;28;20449;-80
2021/06/12 01:10:45;;;;;;;4.85;4.45;;;;;;;;;;5063568;28;20025;-80
2021/06/12 01:13:11;;;;;;;4.57;4.18;;;;;;;;;;5064961;28;20028;-80
2021/06/12 01:15:52;;;;;;;4.35;3.95;;;;;;;;;;5045458;28;20539;-80
2021/06/12 01:18:22;;;;;;;4.68;4.03;;;;;;;;;;5050684;28;20074;-80
2021/06/12 01:20:51;;;;;;;5.38;4.10;;;;;;;;;;5083937;28;20020;-79
2021/06/12 01:23:32;;;;;;;4.60;4.20;;;;;;;;;;5083082;28;20082;-81
2021/06/12 01:26:16;;;;;;;3.47;3.17;;;;;;;;;;5085227;28;20035;-81
2021/06/12 01:29:03;;;;;;;4.32;3.90;;;;;;;;;;5084231;28;20155;-80
2021/06/12 01:31:30;;;;;;;6.25;3.78;;;;;;;;;;5067453;28;20412;-80
2021/06/12 01:33:58;;;;;;;4.00;3.60;;;;;;;;;;5086464;28;20021;-81
2021/06/12 01:36:24;;;;;;;4.32;3.92;;;;;;;;;;5094843;28;20028;-82
2021/06/12 01:38:53;;;;;;;3.88;3.45;;;;;;;;;;5077388;28;20119;-82
2021/06/12 01:41:21;;;;;;;3.30;3.08;;;;;;;;;;5086719;28;20020;-82
2021/06/12 01:43:47;;;;;;;3.70;3.40;;;;;;;;;;5075550;28;20040;-82
2021/06/12 01:46:14;;;;;;;4.22;3.67;;;;;;;;;;5073180;28;20028;-81
2021/06/12 01:48:44;;;;;;;4.75;3.72;;;;;;;;;;5072008;28;20025;-82
2021/06/12 01:51:11;;;;;;;3.83;3.53;;;;;;;;;;5069334;28;20012;-81
2021/06/12 01:53:39;;;;;;;4.20;3.42;;;;;;;;;;5083912;28;20481;-81
2021/06/12 01:56:06;;;;;;;4.80;3.90;;;;;;;;;;5083614;28;20097;-80
2021/06/12 01:58:33;;;;;;;4.07;3.78;;;;;;;;;;5083374;28;20028;-80
2021/06/12 02:01:00;;;;;;;4.00;3.45;;;;;;;;;;5081470;28;20032;-81
2021/06/12 02:03:26;;;;;;;3.50;3.20;;;;;;;;;;5063178;28;20021;-81
2021/06/12 02:05:53;;;;;;;4.30;3.90;;;;;;;;;;5062083;28;20021;-80
2021/06/12 02:08:19;;;;;;;4.78;3.88;;;;;;;;;;5077978;28;20119;-80
2021/06/12 02:10:46;;;;;;;4.35;3.95;;;;;;;;;;5079914;28;20129;-80
2021/06/12 02:13:15;;;;;;;4.60;4.15;;;;;;;;;;5095887;28;20090;-82
2021/06/12 02:15:41;;;;;;;5.45;4.03;;;;;;;;;;5096236;28;20052;-81
2021/06/12 02:18:09;;;;;;;3.95;3.65;;;;;;;;;;5071589;28;20088;-81
2021/06/12 02:20:36;;;;;;;5.05;4.22;;;;;;;;;;5089988;28;20025;-80
2021/06/12 02:23:04;;;;;;;5.57;4.82;;;;;;;;;;5089303;28;20032;-81
2021/06/12 02:25:32;;;;;;;4.47;4.07;;;;;;;;;;5088378;28;20028;-80
2021/06/12 02:28:01;;;;;;;4.10;3.75;;;;;;;;;;5085152;28;20084;-81
2021/06/12 02:30:32;;;;;;;5.07;4.57;;;;;;;;;;5088790;28;20060;-80
2021/06/12 02:33:02;;;;;;;4.53;4.13;;;;;;;;;;5088224;28;20052;-80
2021/06/12 02:35:28;;;;;;;5.20;4.07;;;;;;;;;;5089065;28;20028;-81
2021/06/12 02:37:55;;;;;;;5.78;4.07;;;;;;;;;;5088095;28;20039;-80
2021/06/12 02:40:21;;;;;;;4.43;4.03;;;;;;;;;;5076923;28;20025;-82
2021/06/12 02:42:47;;;;;;;5.38;4.10;;;;;;;;;;5087517;28;20040;-80
2021/06/12 02:45:13;;;;;;;4.10;3.67;;;;;;;;;;5069924;28;20024;-80
2021/06/12 02:47:44;;;;;;;3.75;3.45;;;;;;;;;;5087179;28;20039;-80
2021/06/12 02:50:11;;;;;;;4.47;3.97;;;;;;;;;;5067010;28;20361;-81
2021/06/12 02:52:38;;;;;;;4.47;4.07;;;;;;;;;;5065911;28;20090;-81
2021/06/12 02:55:12;;;;;;;5.53;4.43;;;;;;;;;;5085488;28;20036;-81
2021/06/12 02:57:40;;;;;;;4.45;3.72;;;;;;;;;;5071076;22;20026;-81
2021/06/12 03:00:06;;;;;;;4.53;4.18;;;;;;;;;;5022125;28;20034;-81
2021/06/12 03:02:35;;;;;;;4.50;3.72;;;;;;;;;;5017289;28;20026;-82
2021/06/12 03:05:02;;;;;;;4.40;4.00;;;;;;;;;;5016188;28;20084;-82
2021/06/12 03:07:30;;;;;;;4.15;3.85;;;;;;;;;;5030979;28;20029;-82
2021/06/12 03:09:56;;;;;;;4.15;3.85;;;;;;;;;;5029128;28;20037;-82
2021/06/12 03:12:22;;;;;;;3.55;3.25;;;;;;;;;;5036869;28;20057;-82
2021/06/12 03:14:49;;;;;;;3.72;3.38;;;;;;;;;;5037027;28;20030;-82
2021/06/12 03:17:16;;;;;;;4.57;3.95;;;;;;;;;;5036202;28;20520;-82
2021/06/12 03:19:43;;;;;;;4.28;3.88;;;;;;;;;;5037249;28;20040;-82
2021/06/12 03:22:10;;;;;;;7.15;4.50;;;;;;;;;;5041554;28;20473;-83
2021/06/12 03:24:37;;;;;;;4.65;4.22;;;;;;;;;;5053119;28;20026;-82
2021/06/12 03:27:04;;;;;;;4.53;4.13;;;;;;;;;;5042435;28;20273;-83
2021/06/12 03:29:31;;;;;;;6.30;4.38;;;;;;;;;;5036901;28;20017;-82
2021/06/12 03:31:58;;;;;;;4.10;3.70;;;;;;;;;;5037058;28;20026;-83
2021/06/12 03:34:25;;;;;;;4.68;4.07;;;;;;;;;;5037781;28;20017;-83
2021/06/12 03:36:51;;;;;;;3.67;3.38;;;;;;;;;;5035849;28;20048;-83
2021/06/12 03:39:17;;;;;;;3.42;3.13;;;;;;;;;;5035544;28;20040;-83
2021/06/12 03:41:44;;;;;;;3.72;3.40;;;;;;;;;;5032899;28;20028;-83
2021/06/12 03:44:10;;;;;;;3.83;3.53;;;;;;;;;;5037248;28;20049;-83
2021/06/12 03:46:36;;;;;;;3.42;3.13;;;;;;;;;;5035106;28;20064;-82
2021/06/12 03:49:03;;;;;;;3.88;3.35;;;;;;;;;;5036245;28;20187;-83
2021/06/12 03:51:29;;;;;;;3.65;3.00;;;;;;;;;;5036824;28;20057;-83
2021/06/12 03:53:55;;;;;;;3.45;3.08;;;;;;;;;;5032073;28;20605;-83
2021/06/12 03:56:22;;;;;;;3.28;3.08;;;;;;;;;;5024061;28;20037;-83
2021/06/12 03:58:49;;;;;;;3.30;2.97;;;;;;;;;;5035809;28;20042;-82
2021/06/12 04:01:16;;;;;;;4.10;3.70;;;;;;;;;;5036917;28;20072;-83
2021/06/12 04:03:43;;;;;;;3.70;3.30;;;;;;;;;;5040393;28;20033;-83
2021/06/12 04:06:09;;;;;;;3.97;3.42;;;;;;;;;;5042136;28;20030;-82
2021/06/12 04:08:35;;;;;;;4.35;3.08;;;;;;;;;;5041773;28;20043;-83
2021/06/12 04:11:01;;;;;;;3.55;3.25;;;;;;;;;;5039747;28;20032;-83
2021/06/12 04:13:27;;;;;;;3.67;3.08;;;;;;;;;;5037291;28;20033;-84
2021/06/12 04:15:54;;;;;;;3.50;3.20;;;;;;;;;;5039108;28;20021;-84
2021/06/12 04:18:20;;;;;;;3.65;3.35;;;;;;;;;;5037627;28;20026;-83
2021/06/12 04:20:46;;;;;;;5.90;4.18;;;;;;;;;;5038789;28;20049;-83
2021/06/12 04:23:13;;;;;;;3.80;3.40;;;;;;;;;;5037403;28;20065;-82
2021/06/12 04:25:39;;;;;;;4.47;3.97;;;;;;;;;;5035243;28;20029;-83
2021/06/12 04:28:05;;;;;;;3.90;3.58;;;;;;;;;;5034722;28;20034;-83
2021/06/12 04:30:31;;;;;;;3.70;3.40;;;;;;;;;;5037834;28;20040;-82
2021/06/12 04:32:58;;;;;;;4.60;3.90;;;;;;;;;;5036182;28;20029;-83
2021/06/12 04:35:24;;;;;;;5.10;3.72;;;;;;;;;;5036886;28;20032;-83
2021/06/12 04:37:50;;;;;;;3.47;3.17;;;;;;;;;;5041844;28;20108;-82
2021/06/12 04:40:17;;;;;;;4.75;3.67;;;;;;;;;;5014879;28;20033;-83
2021/06/12 04:42:43;;;;;;;3.58;3.38;;;;;;;;;;5038559;28;20032;-84
2021/06/12 04:45:10;;;;;;;5.18;3.10;;;;;;;;;;5040061;28;20397;-84
2021/06/12 04:47:39;;;;;;;7.70;3.85;;;;;;;;;;5037065;28;20037;-84
2021/06/12 04:50:14;;;;;;;4.05;3.75;;;;;;;;;;5037669;28;20432;-84
2021/06/12 04:52:41;;;;;;;4.10;3.67;;;;;;;;;;5037928;28;20053;-83
2021/06/12 04:55:08;;;;;;;3.72;3.42;;;;;;;;;;5039708;28;20032;-86
2021/06/12 04:57:34;;;;;;;3.65;3.35;;;;;;;;;;5044992;28;20059;-81
2021/06/12 05:00:00;;;;;;;4.05;3.33;;;;;;;;;;5046936;28;20025;-82
2021/06/12 05:02:26;;;;;;;3.53;3.00;;;;;;;;;;5048188;28;20025;-82
2021/06/12 05:04:52;;;;;;;5.45;3.40;;;;;;;;;;5047499;28;20025;-81
2021/06/12 05:07:18;;;;;;;3.10;2.83;;;;;;;;;;5048558;28;20022;-82
2021/06/12 05:09:44;;;;;;;3.90;3.50;;;;;;;;;;5026733;28;20037;-82
2021/06/12 05:12:11;;;;;;;2.80;2.60;;;;;;;;;;5041217;28;20033;-82
2021/06/12 05:14:37;;;;;;;2.58;2.47;;;;;;;;;;5047903;28;20040;-83
2021/06/12 05:17:06;;;;;;;2.80;2.60;;;;;;;;;;5048396;28;20029;-81
2021/06/12 05:19:32;;;;;;;2.60;2.40;;;;;;;;;;5049527;28;20043;-81
2021/06/12 05:21:59;;;;;;;2.35;2.15;;;;;;;;;;5048483;28;20288;-81
2021/06/12 05:24:25;;;;;;;2.47;2.38;;;;;;;;;;5056967;28;20026;-81
2021/06/12 05:26:51;;;;;;;2.40;2.25;;;;;;;;;;5057395;28;20040;-81
2021/06/12 05:29:17;;;;;;;2.55;2.35;;;;;;;;;;5056152;28;20037;-81
2021/06/12 05:31:43;;;;;;;2.10;2.00;;;;;;;;;;5050860;28;20025;-81
2021/06/12 05:34:09;;;;;;;2.40;2.30;;;;;;;;;;5050634;28;20506;-82
2021/06/12 05:36:35;;;;;;;2.55;2.38;;;;;;;;;;5049862;28;20082;-81
2021/06/12 05:39:01;;;;;;;3.08;2.78;;;;;;;;;;5049945;28;20036;-83
2021/06/12 05:41:27;;;;;;;2.50;2.38;;;;;;;;;;5047084;28;20025;-81
2021/06/12 05:43:53;;;;;;;2.92;2.72;;;;;;;;;;5049632;28;20025;-81
2021/06/12 05:46:20;;;;;;;3.40;2.80;;;;;;;;;;5050165;28;20036;-81
2021/06/12 05:48:46;;;;;;;3.03;2.72;;;;;;;;;;5049464;28;20105;-81
2021/06/12 05:51:12;;;;;;;2.88;2.67;;;;;;;;;;5049589;28;20029;-81
2021/06/12 05:53:38;;;;;;;3.53;2.70;;;;;;;;;;5048646;28;20025;-82
2021/06/12 05:56:04;;;;;;;3.17;2.88;;;;;;;;;;5048140;28;20034;-82
2021/06/12 05:58:32;;;;;;;2.80;2.60;;;;;;;;;;5048492;28;20040;-82
2021/06/12 06:00:58;;;;;;;2.80;2.60;;;;;;;;;;5048001;28;20020;-82
2021/06/12 06:03:24;;;;;;;4.57;3.00;;;;;;;;;;5049535;28;20490;-82
2021/06/12 06:05:50;;;;;;;3.17;2.97;;;;;;;;;;5048432;28;20034;-82
2021/06/12 06:08:16;;;;;;;2.97;2.78;;;;;;;;;;5048300;28;20064;-82
2021/06/12 06:10:43;;;;;;;2.65;2.55;;;;;;;;;;5039106;28;20529;-82
2021/06/12 06:13:09;;;;;;;2.75;2.60;;;;;;;;;;5048409;28;20051;-82
2021/06/12 06:15:35;;;;;;;4.65;2.70;;;;;;;;;;5048014;28;20029;-83
2021/06/12 06:18:01;;;;;;;2.42;2.33;;;;;;;;;;5047963;28;20048;-83
2021/06/12 06:20:27;;;;;;;2.78;2.58;;;;;;;;;;5049226;28;20024;-83
2021/06/12 06:22:53;;;;;;;3.08;2.88;;;;;;;;;;5054180;28;20029;-82
2021/06/12 06:25:19;;;;;;;2.75;2.58;;;;;;;;;;5055189;28;20043;-82
2021/06/12 06:27:45;;;;;;;2.70;2.60;;;;;;;;;;5055002;28;20101;-82
2021/06/12 06:30:12;;;;;;;3.17;2.85;;;;;;;;;;5056424;28;20033;-82
2021/06/12 06:32:38;;;;;;;3.05;2.80;;;;;;;;;;5055061;28;20033;-82
2021/06/12 06:35:05;;;;;;;3.25;3.05;;;;;;;;;;5045127;28;20037;-83
2021/06/12 06:37:31;;;;;;;3.03;2.83;;;;;;;;;;5045495;28;20017;-83
2021/06/12 06:39:57;;;;;;;2.85;2.75;;;;;;;;;;5020146;28;20033;-83
2021/06/12 06:42:23;;;;;;;3.53;3.30;;;;;;;;;;5044001;28;20056;-83
2021/06/12 06:44:49;;;;;;;3.30;2.53;;;;;;;;;;5045524;28;20167;-83
2021/06/12 06:47:15;;;;;;;3.30;3.10;;;;;;;;;;5045142;28;20033;-83
2021/06/12 06:49:41;;;;;;;3.25;2.67;;;;;;;;;;5043324;28;20053;-83
2021/06/12 06:52:08;;;;;;;2.60;2.50;;;;;;;;;;5046846;28;20029;-83
2021/06/12 06:54:34;;;;;;;2.95;2.75;;;;;;;;;;5043645;28;20025;-83
2021/06/12 06:57:00;;;;;;;4.72;3.22;;;;;;;;;;5043207;28;20030;-83
2021/06/12 06:59:27;;;;;;;4.82;3.15;;;;;;;;;;5052258;28;20045;-82
2021/06/12 07:01:53;;;;;;;3.10;2.90;;;;;;;;;;5056799;28;20064;-82
2021/06/12 07:04:19;;;;;;;3.30;3.10;;;;;;;;;;5042660;28;20032;-83
2021/06/12 07:06:45;;;;;;;2.97;2.88;;;;;;;;;;5040408;28;20498;-82
2021/06/12 07:09:11;;;;;;;3.63;3.42;;;;;;;;;;5037128;28;20378;-82
2021/06/12 07:11:38;;;;;;;2.90;2.70;;;;;;;;;;5032191;28;20477;-83
2021/06/12 07:14:04;;;;;;;3.53;3.33;;;;;;;;;;5039929;28;20509;-83
2021/06/12 07:16:30;;;;;;;3.45;3.25;;;;;;;;;;5038207;28;20063;-84
2021/06/12 07:18:57;;;;;;;3.42;3.15;;;;;;;;;;5040021;28;20025;-81
2021/06/12 07:21:23;;;;;;;4.95;3.63;;;;;;;;;;5040789;28;20091;-82
2021/06/12 07:23:49;;;;;;;3.45;3.15;;;;;;;;;;5040869;28;20030;-82
2021/06/12 07:26:15;;;;;;;3.40;3.10;;;;;;;;;;5041915;28;20033;-82
2021/06/12 07:28:42;;;;;;;4.03;3.63;;;;;;;;;;5044617;28;20022;-82
2021/06/12 07:31:08;;;;;;;3.33;3.08;;;;;;;;;;5041359;28;20025;-82
2021/06/12 07:33:34;;;;;;;3.38;3.17;;;;;;;;;;5044614;28;20030;-81
2021/06/12 07:36:00;;;;;;;3.28;3.00;;;;;;;;;;5046819;28;20049;-82
2021/06/12 07:38:26;;;;;;;3.97;3.55;;;;;;;;;;5042723;28;20026;-82
2021/06/12 07:40:52;;;;;;;4.40;4.07;;;;;;;;;;5035490;28;20094;-82
2021/06/12 07:43:19;;;;;;;4.45;3.42;;;;;;;;;;5032676;28;20037;-82
2021/06/12 07:45:49;;;;;;;3.92;3.58;;;;;;;;;;5032131;28;20029;-82
2021/06/12 07:48:15;;;;;;;4.65;4.25;;;;;;;;;;5041966;28;20044;-82
2021/06/12 07:50:42;;;;;;;4.32;3.97;;;;;;;;;;5044938;28;20083;-81
2021/06/12 07:53:08;;;;;;;4.00;3.63;;;;;;;;;;5044401;28;20105;-81
2021/06/12 07:55:35;;;;;;;3.72;3.53;;;;;;;;;;5045860;28;20021;-82
2021/06/12 07:58:01;;;;;;;4.43;4.03;;;;;;;;;;5044018;28;20363;-83
2021/06/12 08:00:28;;;;;;;4.78;4.10;;;;;;;;;;5044829;28;20025;-82
2021/06/12 08:02:54;;;;;;;4.28;3.85;;;;;;;;;;5045213;28;20048;-82
2021/06/12 08:05:20;;;;;;;4.63;4.20;;;;;;;;;;5045188;28;20077;-83
2021/06/12 08:07:46;;;;;;;4.80;4.07;;;;;;;;;;5049200;28;20057;-82
2021/06/12 08:10:13;;;;;;;4.65;3.92;;;;;;;;;;5052917;28;20009;-83
2021/06/12 08:12:42;;;;;;;4.68;4.18;;;;;;;;;;5037124;28;20036;-81
2021/06/12 08:15:10;;;;;;;3.97;3.67;;;;;;;;;;5034724;28;20081;-81
2021/06/12 08:17:36;;;;;;;4.80;4.30;;;;;;;;;;5040629;28;20029;-82
2021/06/12 08:20:02;;;;;;;4.18;3.88;;;;;;;;;;5057495;28;20029;-82
2021/06/12 08:22:29;;;;;;;4.57;4.18;;;;;;;;;;5057324;28;20029;-82
2021/06/12 08:24:55;;;;;;;5.07;4.57;;;;;;;;;;5057003;28;20029;-83
2021/06/12 08:27:21;;;;;;;4.55;4.25;;;;;;;;;;5057626;28;20029;-83
2021/06/12 08:29:50;;;;;;;4.80;4.40;;;;;;;;;;5057032;28;20021;-82
2021/06/12 08:32:17;;;;;;;7.38;4.47;;;;;;;;;;5054716;28;20036;-82
2021/06/12 08:34:43;;;;;;;6.22;4.05;;;;;;;;;;5054634;28;20025;-83
2021/06/12 08:37:09;;;;;;;4.25;3.95;;;;;;;;;;5054539;28;20025;-81
2021/06/12 08:39:35;;;;;;;4.20;3.90;;;;;;;;;;5045166;28;20037;-81
2021/06/12 08:42:02;;;;;;;4.10;3.70;;;;;;;;;;5051129;28;20020;-82
2021/06/12 08:44:29;;;;;;;4.93;4.53;;;;;;;;;;5054527;28;20017;-82
2021/06/12 08:46:55;;;;;;;4.40;4.10;;;;;;;;;;5057096;28;20048;-82
2021/06/12 08:49:21;;;;;;;4.18;3.88;;;;;;;;;;5055444;28;20128;-82
2021/06/12 08:51:48;;;;;;;4.95;4.55;;;;;;;;;;5055092;28;20101;-83
2021/06/12 08:54:17;;;;;;;5.00;4.50;;;;;;;;;;5055642;28;20073;-82
2021/06/12 08:56:45;;;;;;;4.70;4.25;;;;;;;;;;5069340;22;20052;-82
2021/06/12 08:59:12;;;;;;;4.93;4.43;;;;;;;;;;5059553;28;20108;-82
2021/06/12 09:01:38;;;;;;;4.25;3.88;;;;;;;;;;5046228;28;20083;-82
2021/06/12 09:04:04;;;;;;;4.57;4.25;;;;;;;;;;5052202;28;20031;-83
2021/06/12 09:06:31;;;;;;;4.55;4.18;;;;;;;;;;5069265;28;20032;-82
2021/06/12 09:09:07;;;;;;;3.63;3.42;;;;;;;;;;5080004;28;20069;-84
2021/06/12 09:11:34;;;;;;;6.13;4.53;;;;;;;;;;5076690;28;20025;-84
2021/06/12 09:14:01;;;;;;;4.55;4.20;;;;;;;;;;5092196;28;20029;-84
2021/06/12 09:16:28;;;;;;;4.97;4.55;;;;;;;;;;5091666;28;20099;-84
2021/06/12 09:19:02;;;;;;;5.10;4.05;;;;;;;;;;5105026;28;20020;-83
2021/06/12 09:21:33;;;;;;;4.38;4.00;;;;;;;;;;5086088;28;20024;-83
2021/06/12 09:24:00;;;;;;;5.32;4.00;;;;;;;;;;5089145;28;20352;-82
2021/06/12 09:26:44;;;;;;;3.92;3.63;;;;;;;;;;5085813;28;20039;-82
2021/06/12 09:29:11;;;;;;;4.00;3.70;;;;;;;;;;5085290;28;20510;-83
2021/06/12 09:31:45;;;;;;;4.97;4.53;;;;;;;;;;5102456;28;20028;-84
2021/06/12 09:34:12;;;;;;;5.53;3.83;;;;;;;;;;5086012;28;20043;-82
2021/06/12 09:36:39;;;;;;;5.75;4.43;;;;;;;;;;5085684;28;20031;-82
2021/06/12 09:39:09;;;;;;;7.88;4.68;;;;;;;;;;5070685;28;20092;-82
2021/06/12 09:41:36;;;;;;;5.73;3.80;;;;;;;;;;5098562;28;20111;-82
2021/06/12 09:44:03;;;;;;;4.35;3.95;;;;;;;;;;5088955;28;20048;-82
2021/06/12 09:46:40;;;;;;;4.22;3.83;;;;;;;;;;5070126;28;20036;-82
2021/06/12 09:49:08;;;;;;;5.15;4.18;;;;;;;;;;5090475;28;20223;-82
2021/06/12 09:51:34;;;;;;;4.38;4.07;;;;;;;;;;5090254;28;20024;-82
2021/06/12 09:54:02;;;;;;;4.10;3.78;;;;;;;;;;5093160;28;20032;-82
2021/06/12 09:56:29;;;;;;;10.60;4.82;;;;;;;;;;5069688;28;20431;-82
2021/06/12 09:58:59;;;;;;;4.68;4.28;;;;;;;;;;5066978;28;20389;-83
2021/06/12 10:01:29;;;;;;;5.75;4.47;;;;;;;;;;5083974;28;20035;-83
2021/06/12 10:04:09;;;;;;;6.45;5.13;;;;;;;;;;5083624;28;20420;-82
2021/06/12 10:06:35;;;;;;;4.25;3.95;;;;;;;;;;5082095;28;20020;-82
2021/06/12 10:09:02;;;;;;;4.88;4.38;;;;;;;;;;5090708;28;20024;-83
2021/06/12 10:11:30;;;;;;;4.55;4.10;;;;;;;;;;5093744;28;20020;-83
2021/06/12 10:13:56;;;;;;;4.35;4.05;;;;;;;;;;5093866;28;20015;-83
2021/06/12 10:16:24;;;;;;;4.25;3.95;;;;;;;;;;5098898;28;20101;-82
2021/06/12 10:18:52;;;;;;;4.38;3.92;;;;;;;;;;5099032;28;20031;-82
2021/06/12 10:21:18;;;;;;;3.83;3.50;;;;;;;;;;5107109;28;20021;-83
2021/06/12 10:23:46;;;;;;;4.90;3.90;;;;;;;;;;5095700;28;20036;-82
2021/06/12 10:26:13;;;;;;;3.85;3.55;;;;;;;;;;5096238;28;20020;-83
2021/06/12 10:28:39;;;;;;;4.05;3.53;;;;;;;;;;5073070;28;20090;-83
2021/06/12 10:31:34;;;;;;;3.65;3.20;;;;;;;;;;5086142;28;20024;-83
2021/06/12 10:34:01;;;;;;;3.30;3.10;;;;;;;;;;5079595;28;20028;-83
2021/06/12 10:36:29;;;;;;;4.03;3.22;;;;;;;;;;5102758;28;20092;-82
2021/06/12 10:38:56;;;;;;;3.08;2.88;;;;;;;;;;5070248;28;20056;-83
2021/06/12 10:41:23;;;;;;;4.32;3.20;;;;;;;;;;5095210;28;20017;-83
2021/06/12 10:43:50;;;;;;;3.30;3.00;;;;;;;;;;5090192;28;20106;-82
2021/06/12 10:46:19;;;;;;;3.20;2.92;;;;;;;;;;5068162;28;20032;-82
2021/06/12 10:48:47;;;;;;;3.30;3.10;;;;;;;;;;5067743;28;20047;-82
2021/06/12 10:51:18;;;;;;;4.30;3.00;;;;;;;;;;5063298;28;20028;-83
2021/06/12 10:53:52;;;;;;;4.07;3.20;;;;;;;;;;5081898;28;20088;-82
2021/06/12 10:56:32;;;;;;;2.85;2.65;;;;;;;;;;5081107;28;20852;-82
2021/06/12 10:58:58;;;;;;;2.80;2.60;;;;;;;;;;5063112;28;20405;-82
2021/06/12 11:01:24;;;;;;;3.95;2.80;;;;;;;;;;5064287;28;20048;-82
2021/06/12 11:09:20;;;;;;;2.95;2.70;;;;;;;;;;5092917;28;20046;-84
2021/06/12 11:11:51;;;;;;;3.95;3.03;;;;;;;;;;5074139;28;20062;-83
2021/06/12 11:14:23;;;;;;;3.13;2.92;;;;;;;;;;5092122;28;20023;-83
2021/06/12 11:17:08;;;;;;;3.08;2.78;;;;;;;;;;5103288;28;20024;-83
2021/06/12 11:19:39;;;;;;;4.72;2.83;;;;;;;;;;5085775;28;20515;-83
2021/06/12 11:22:24;;;;;;;3.80;2.80;;;;;;;;;;5102683;28;20058;-82
2021/06/12 11:24:52;;;;;;;2.80;2.60;;;;;;;;;;5102308;28;20028;-82
2021/06/12 11:27:28;;;;;;;3.20;3.00;;;;;;;;;;5083740;28;20038;-82
2021/06/12 11:30:13;;;;;;;3.08;2.88;;;;;;;;;;5101416;28;20402;-83
2021/06/12 11:32:40;;;;;;;3.33;2.97;;;;;;;;;;5100314;28;20024;-83
2021/06/12 11:35:06;;;;;;;3.00;2.80;;;;;;;;;;5081997;28;20024;-82
2021/06/12 11:37:33;;;;;;;2.80;2.63;;;;;;;;;;5097894;28;20016;-82
2021/06/12 11:40:02;;;;;;;2.90;2.70;;;;;;;;;;5088558;28;20016;-81
2021/06/12 11:42:41;;;;;;;3.28;3.08;;;;;;;;;;5103536;28;20016;-84
2021/06/12 11:45:18;;;;;;;3.88;3.00;;;;;;;;;;5107198;28;20040;-83
2021/06/12 11:47:45;;;;;;;6.53;3.00;;;;;;;;;;5093472;28;20097;-83
2021/06/12 11:50:11;;;;;;;5.18;2.88;;;;;;;;;;5088149;28;20020;-82
2021/06/12 11:52:42;;;;;;;3.25;3.05;;;;;;;;;;5085243;28;20037;-83
2021/06/12 11:55:15;;;;;;;2.55;2.35;;;;;;;;;;5067232;28;20025;-83
2021/06/12 11:57:42;;;;;;;3.42;2.70;;;;;;;;;;5065856;28;20029;-83
2021/06/12 12:00:27;;;;;;;3.65;2.92;;;;;;;;;;5071986;28;20024;-83
2021/06/12 12:03:11;;;;;;;3.17;2.85;;;;;;;;;;5083042;28;20012;-83
2021/06/12 12:05:38;;;;;;;3.60;2.83;;;;;;;;;;5088542;28;20028;-83
2021/06/12 12:08:12;;;;;;;3.40;3.00;;;;;;;;;;5101350;28;20024;-83
2021/06/12 12:10:38;;;;;;;3.10;2.80;;;;;;;;;;5086594;28;20059;-83
2021/06/12 12:13:04;;;;;;;7.38;3.03;;;;;;;;;;5109958;28;20034;-82
2021/06/12 12:15:34;;;;;;;2.70;2.50;;;;;;;;;;5100538;28;20057;-83
2021/06/12 12:18:05;;;;;;;2.88;2.67;;;;;;;;;;5082414;28;20016;-83
2021/06/12 12:20:56;;;;;;;3.13;2.80;;;;;;;;;;5098894;28;20055;-83
2021/06/12 12:23:31;;;;;;;3.45;3.20;;;;;;;;;;5080872;28;20016;-83
2021/06/12 12:26:05;;;;;;;3.22;3.03;;;;;;;;;;5082255;28;20040;-83
2021/06/12 12:28:31;;;;;;;3.72;3.00;;;;;;;;;;5080798;28;20482;-82
2021/06/12 12:31:06;;;;;;;4.65;3.05;;;;;;;;;;5098765;28;20024;-82
2021/06/12 12:33:32;;;;;;;2.92;2.72;;;;;;;;;;5081540;28;20034;-82
2021/06/12 12:36:01;;;;;;;3.33;3.10;;;;;;;;;;5081413;28;20507;-84
2021/06/12 12:38:27;;;;;;;3.00;2.70;;;;;;;;;;5070039;28;20469;-83
2021/06/12 12:40:54;;;;;;;3.22;2.97;;;;;;;;;;5085685;28;20066;-82
2021/06/12 12:43:20;;;;;;;3.58;3.22;;;;;;;;;;5092836;28;20016;-82
2021/06/12 12:45:48;;;;;;;3.20;3.00;;;;;;;;;;5067866;28;20032;-83
2021/06/12 12:48:17;;;;;;;2.95;2.70;;;;;;;;;;5085554;28;20024;-84
2021/06/12 12:50:43;;;;;;;4.22;2.53;;;;;;;;;;5062100;28;20029;-82
2021/06/12 12:53:10;;;;;;;4.25;2.75;;;;;;;;;;5075160;28;20058;-82
2021/06/12 12:55:37;;;;;;;3.00;2.70;;;;;;;;;;5062871;28;20020;-83
2021/06/12 12:58:04;;;;;;;3.47;2.78;;;;;;;;;;5080649;28;20029;-84
2021/06/12 13:00:32;;;;;;;2.60;2.40;;;;;;;;;;5082873;28;20020;-82
2021/06/12 13:03:03;;;;;;;3.05;2.85;;;;;;;;;;5092484;28;20020;-83
2021/06/12 13:05:30;;;;;;;3.15;2.85;;;;;;;;;;5103450;28;20138;-83
2021/06/12 13:07:57;;;;;;;2.88;2.40;;;;;;;;;;5078625;28;20025;-83
2021/06/12 13:10:29;;;;;;;3.10;2.90;;;;;;;;;;5074033;28;20024;-83
2021/06/12 13:12:56;;;;;;;4.00;2.95;;;;;;;;;;5065218;28;20036;-83
2021/06/12 13:15:22;;;;;;;3.67;3.00;;;;;;;;;;5083993;28;20029;-82
2021/06/12 13:17:48;;;;;;;3.05;2.85;;;;;;;;;;5090931;28;20036;-82
2021/06/12 13:20:20;;;;;;;4.43;2.92;;;;;;;;;;5089967;28;20067;-84
2021/06/12 13:22:47;;;;;;;4.65;3.55;;;;;;;;;;5069974;28;20031;-84
2021/06/12 13:25:13;;;;;;;3.10;2.90;;;;;;;;;;5105342;28;20084;-83
2021/06/12 13:27:42;;;;;;;4.70;3.22;;;;;;;;;;5085173;28;20024;-83
2021/06/12 13:30:31;;;;;;;3.10;2.85;;;;;;;;;;5103129;28;20024;-83
2021/06/12 13:32:58;;;;;;;3.50;3.20;;;;;;;;;;5069090;28;20488;-82
2021/06/12 13:35:24;;;;;;;5.97;3.58;;;;;;;;;;5084805;28;20066;-82
2021/06/12 13:38:02;;;;;;;4.30;3.35;;;;;;;;;;5096839;28;20095;-83
2021/06/12 13:40:29;;;;;;;3.35;3.10;;;;;;;;;;5079378;28;20028;-83
2021/06/12 13:42:55;;;;;;;3.92;3.47;;;;;;;;;;5080316;28;20025;-83
2021/06/12 13:45:21;;;;;;;3.13;2.92;;;;;;;;;;5098977;28;20106;-83
2021/06/12 13:47:47;;;;;;;5.40;3.70;;;;;;;;;;5111714;28;20016;-82
2021/06/12 13:50:13;;;;;;;3.65;3.35;;;;;;;;;;5118153;28;20080;-81
2021/06/12 13:52:39;;;;;;;2.95;2.75;;;;;;;;;;5106099;28;20025;-83
2021/06/12 13:55:09;;;;;;;4.05;3.30;;;;;;;;;;5068884;28;20059;-83
2021/06/12 13:57:39;;;;;;;3.55;3.17;;;;;;;;;;5066655;28;20361;-83
2021/06/12 14:00:05;;;;;;;3.80;3.30;;;;;;;;;;5084152;28;20082;-82
2021/06/12 14:02:31;;;;;;;6.13;4.00;;;;;;;;;;5076953;28;20024;-83
2021/06/12 14:04:57;;;;;;;4.20;3.78;;;;;;;;;;5092883;28;20031;-83
2021/06/12 14:07:23;;;;;;;5.18;4.22;;;;;;;;;;5087216;28;20038;-82
2021/06/12 14:09:49;;;;;;;4.10;3.80;;;;;;;;;;5097484;28;20024;-82
2021/06/12 14:12:16;;;;;;;4.28;3.90;;;;;;;;;;5089735;28;20024;-82
2021/06/12 14:14:42;;;;;;;3.92;3.50;;;;;;;;;;5067143;28;20039;-82
2021/06/12 14:17:08;;;;;;;4.10;3.80;;;;;;;;;;5090348;28;20043;-82
2021/06/12 14:19:35;;;;;;;4.57;3.78;;;;;;;;;;5069994;28;20059;-82
2021/06/12 14:22:01;;;;;;;3.90;3.47;;;;;;;;;;5093925;28;20021;-82
2021/06/12 14:24:27;;;;;;;5.57;3.63;;;;;;;;;;5076238;28;20024;-83
2021/06/12 14:26:54;;;;;;;3.92;3.70;;;;;;;;;;5084679;28;20028;-83
2021/06/12 14:29:20;;;;;;;5.57;3.90;;;;;;;;;;5085826;28;20020;-83
2021/06/12 14:31:47;;;;;;;4.03;3.72;;;;;;;;;;5102617;28;20071;-83
2021/06/12 14:34:13;;;;;;;4.10;3.70;;;;;;;;;;5101846;28;20038;-83
2021/06/12 14:36:40;;;;;;;4.35;4.00;;;;;;;;;;5109452;28;20024;-82
2021/06/12 14:39:09;;;;;;;3.58;3.33;;;;;;;;;;5100796;28;20016;-83
2021/06/12 14:41:36;;;;;;;4.00;3.70;;;;;;;;;;5113263;28;20028;-83
2021/06/12 14:44:03;;;;;;;7.95;4.80;;;;;;;;;;5114614;28;20066;-82
2021/06/12 14:46:29;;;;;;;7.38;5.13;;;;;;;;;;5102451;28;20040;-82
2021/06/12 14:48:55;;;;;;;7.57;4.78;;;;;;;;;;5093694;28;20043;-82
2021/06/12 14:51:21;;;;;;;4.60;4.20;;;;;;;;;;5095562;28;20046;-83
2021/06/12 14:53:47;;;;;;;5.22;4.72;;;;;;;;;;5098603;28;20079;-82